sensor_id;sensor_type;location;lat;lon;timestamp;temperature;humidity
69436;SHT31;56625;54.322;18.582;2022-12-07T00:01:44;2.67;89.70
69436;SHT31;56625;54.322;18.582;2022-12-07T00:04:14;2.68;89.66
69436;SHT31;56625;54.322;18.582;2022-12-07T00:06:46;2.69;89.64
69436;SHT31;56625;54.322;18.582;2022-12-07T00:09:20;2.67;89.60
69436;SHT31;56625;54.322;18.582;2022-12-07T00:11:50;2.66;89.64
69436;SHT31;56625;54.322;18.582;2022-12-07T00:14:20;2.64;89.70
69436;SHT31;56625;54.322;18.582;2022-12-07T00:16:49;2.63;89.78
69436;SHT31;56625;54.322;18.582;2022-12-07T00:19:19;2.61;89.84
69436;SHT31;56625;54.322;18.582;2022-12-07T00:21:47;2.60;89.90
69436;SHT31;56625;54.322;18.582;2022-12-07T00:24:15;2.61;89.93
69436;SHT31;56625;54.322;18.582;2022-12-07T00:26:44;2.60;89.92
69436;SHT31;56625;54.322;18.582;2022-12-07T00:29:16;2.60;89.98
69436;SHT31;56625;54.322;18.582;2022-12-07T00:31:47;2.59;90.01
69436;SHT31;56625;54.322;18.582;2022-12-07T00:34:17;2.58;90.09
69436;SHT31;56625;54.322;18.582;2022-12-07T00:36:48;2.58;90.12
69436;SHT31;56625;54.322;18.582;2022-12-07T00:39:17;2.58;90.20
69436;SHT31;56625;54.322;18.582;2022-12-07T00:41:45;2.58;90.24
69436;SHT31;56625;54.322;18.582;2022-12-07T00:44:13;2.57;90.29
69436;SHT31;56625;54.322;18.582;2022-12-07T00:46:41;2.57;90.32
69436;SHT31;56625;54.322;18.582;2022-12-07T00:49:09;2.59;90.31
69436;SHT31;56625;54.322;18.582;2022-12-07T00:51:37;2.59;90.31
69436;SHT31;56625;54.322;18.582;2022-12-07T00:54:05;2.59;90.32
69436;SHT31;56625;54.322;18.582;2022-12-07T00:56:33;2.59;90.39
69436;SHT31;56625;54.322;18.582;2022-12-07T00:59:02;2.58;90.42
69436;SHT31;56625;54.322;18.582;2022-12-07T01:01:32;2.58;90.50
69436;SHT31;56625;54.322;18.582;2022-12-07T01:04:04;2.56;90.55
69436;SHT31;56625;54.322;18.582;2022-12-07T01:06:32;2.56;90.63
69436;SHT31;56625;54.322;18.582;2022-12-07T01:09:01;2.55;90.70
69436;SHT31;56625;54.322;18.582;2022-12-07T01:11:31;2.55;90.70
69436;SHT31;56625;54.322;18.582;2022-12-07T01:14:00;2.57;90.72
69436;SHT31;56625;54.322;18.582;2022-12-07T01:16:29;2.58;90.74
69436;SHT31;56625;54.322;18.582;2022-12-07T01:18:59;2.58;90.76
69436;SHT31;56625;54.322;18.582;2022-12-07T01:21:29;2.58;90.80
69436;SHT31;56625;54.322;18.582;2022-12-07T01:24:06;2.59;90.82
69436;SHT31;56625;54.322;18.582;2022-12-07T01:26:37;2.58;90.90
69436;SHT31;56625;54.322;18.582;2022-12-07T01:29:05;2.58;90.94
69436;SHT31;56625;54.322;18.582;2022-12-07T01:31:33;2.58;90.95
69436;SHT31;56625;54.322;18.582;2022-12-07T01:34:01;2.58;91.00
69436;SHT31;56625;54.322;18.582;2022-12-07T01:36:31;2.58;91.01
69436;SHT31;56625;54.322;18.582;2022-12-07T01:39:03;2.58;91.03
69436;SHT31;56625;54.322;18.582;2022-12-07T01:41:37;2.59;91.11
69436;SHT31;56625;54.322;18.582;2022-12-07T01:46:55;2.59;91.19
69436;SHT31;56625;54.322;18.582;2022-12-07T01:49:35;2.60;91.20
69436;SHT31;56625;54.322;18.582;2022-12-07T01:55:00;2.63;91.20
69436;SHT31;56625;54.322;18.582;2022-12-07T01:57:33;2.64;91.20
69436;SHT31;56625;54.322;18.582;2022-12-07T02:00:06;2.64;91.21
69436;SHT31;56625;54.322;18.582;2022-12-07T02:02:37;2.65;91.20
69436;SHT31;56625;54.322;18.582;2022-12-07T02:05:14;2.66;91.19
69436;SHT31;56625;54.322;18.582;2022-12-07T02:07:44;2.67;91.19
69436;SHT31;56625;54.322;18.582;2022-12-07T02:10:17;2.69;91.18
69436;SHT31;56625;54.322;18.582;2022-12-07T02:13:00;2.69;91.20
69436;SHT31;56625;54.322;18.582;2022-12-07T02:18:42;2.71;91.20
69436;SHT31;56625;54.322;18.582;2022-12-07T02:27:10;2.76;91.20
69436;SHT31;56625;54.322;18.582;2022-12-07T02:29:57;2.77;91.20
69436;SHT31;56625;54.322;18.582;2022-12-07T02:33:18;2.77;91.21
69436;SHT31;56625;54.322;18.582;2022-12-07T02:35:48;2.77;91.29
69436;SHT31;56625;54.322;18.582;2022-12-07T02:41:13;2.77;91.30
69436;SHT31;56625;54.322;18.582;2022-12-07T02:43:53;2.77;91.37
69436;SHT31;56625;54.322;18.582;2022-12-07T02:46:36;2.77;91.42
69436;SHT31;56625;54.322;18.582;2022-12-07T02:49:09;2.76;91.46
69436;SHT31;56625;54.322;18.582;2022-12-07T02:51:39;2.78;91.49
69436;SHT31;56625;54.322;18.582;2022-12-07T02:54:12;2.80;91.50
69436;SHT31;56625;54.322;18.582;2022-12-07T02:56:48;2.81;91.49
69436;SHT31;56625;54.322;18.582;2022-12-07T02:59:41;2.82;91.52
69436;SHT31;56625;54.322;18.582;2022-12-07T03:08:29;2.87;91.49
69436;SHT31;56625;54.322;18.582;2022-12-07T03:11:06;2.88;91.48
69436;SHT31;56625;54.322;18.582;2022-12-07T03:13:43;2.88;91.59
69436;SHT31;56625;54.322;18.582;2022-12-07T03:16:43;2.87;91.62
69436;SHT31;56625;54.322;18.582;2022-12-07T03:19:18;2.87;91.72
69436;SHT31;56625;54.322;18.582;2022-12-07T03:21:53;2.90;91.73
69436;SHT31;56625;54.322;18.582;2022-12-07T03:24:35;2.90;91.74
69436;SHT31;56625;54.322;18.582;2022-12-07T03:27:19;2.90;91.76
69436;SHT31;56625;54.322;18.582;2022-12-07T03:29:56;2.90;91.78
69436;SHT31;56625;54.322;18.582;2022-12-07T03:32:47;2.91;91.73
69436;SHT31;56625;54.322;18.582;2022-12-07T03:38:17;2.91;91.70
69436;SHT31;56625;54.322;18.582;2022-12-07T03:43:58;2.92;91.70
69436;SHT31;56625;54.322;18.582;2022-12-07T03:57:47;2.95;91.60
69436;SHT31;56625;54.322;18.582;2022-12-07T04:00:20;2.95;91.54
69436;SHT31;56625;54.322;18.582;2022-12-07T04:02:50;2.97;91.50
69436;SHT31;56625;54.322;18.582;2022-12-07T04:05:20;2.97;91.47
69436;SHT31;56625;54.322;18.582;2022-12-07T04:07:48;2.97;91.40
69436;SHT31;56625;54.322;18.582;2022-12-07T04:10:17;2.96;91.37
69436;SHT31;56625;54.322;18.582;2022-12-07T04:12:45;2.96;91.30
69436;SHT31;56625;54.322;18.582;2022-12-07T04:15:13;2.96;91.28
69436;SHT31;56625;54.322;18.582;2022-12-07T04:17:41;2.95;91.26
69436;SHT31;56625;54.322;18.582;2022-12-07T04:20:09;2.95;91.20
69436;SHT31;56625;54.322;18.582;2022-12-07T04:22:39;2.95;91.20
69436;SHT31;56625;54.322;18.582;2022-12-07T04:25:07;2.96;91.20
69436;SHT31;56625;54.322;18.582;2022-12-07T04:27:35;2.95;91.13
69436;SHT31;56625;54.322;18.582;2022-12-07T04:30:04;2.96;91.10
69436;SHT31;56625;54.322;18.582;2022-12-07T04:32:33;2.94;91.09
69436;SHT31;56625;54.322;18.582;2022-12-07T04:35:01;2.95;91.09
69436;SHT31;56625;54.322;18.582;2022-12-07T04:37:30;2.95;91.09
69436;SHT31;56625;54.322;18.582;2022-12-07T04:39:58;2.97;91.07
69436;SHT31;56625;54.322;18.582;2022-12-07T04:42:26;2.97;91.09
69436;SHT31;56625;54.322;18.582;2022-12-07T04:44:54;2.97;91.10
69436;SHT31;56625;54.322;18.582;2022-12-07T04:47:22;3.00;91.05
69436;SHT31;56625;54.322;18.582;2022-12-07T04:49:50;3.02;91.00
69436;SHT31;56625;54.322;18.582;2022-12-07T04:52:18;3.04;90.98
69436;SHT31;56625;54.322;18.582;2022-12-07T04:54:46;3.06;90.92
69436;SHT31;56625;54.322;18.582;2022-12-07T04:57:15;3.08;90.90
69436;SHT31;56625;54.322;18.582;2022-12-07T04:59:43;3.11;90.87
69436;SHT31;56625;54.322;18.582;2022-12-07T05:02:12;3.12;90.80
69436;SHT31;56625;54.322;18.582;2022-12-07T05:04:40;3.14;90.80
69436;SHT31;56625;54.322;18.582;2022-12-07T05:07:08;3.16;90.77
69436;SHT31;56625;54.322;18.582;2022-12-07T05:09:36;3.17;90.70
69436;SHT31;56625;54.322;18.582;2022-12-07T05:12:04;3.18;90.70
69436;SHT31;56625;54.322;18.582;2022-12-07T05:14:32;3.19;90.70
69436;SHT31;56625;54.322;18.582;2022-12-07T05:17:00;3.20;90.67
69436;SHT31;56625;54.322;18.582;2022-12-07T05:19:28;3.22;90.68
69436;SHT31;56625;54.322;18.582;2022-12-07T05:21:56;3.22;90.68
69436;SHT31;56625;54.322;18.582;2022-12-07T05:24:24;3.22;90.77
69436;SHT31;56625;54.322;18.582;2022-12-07T05:26:52;3.23;90.81
69436;SHT31;56625;54.322;18.582;2022-12-07T05:29:20;3.25;90.89
69436;SHT31;56625;54.322;18.582;2022-12-07T05:31:48;3.26;90.90
69436;SHT31;56625;54.322;18.582;2022-12-07T05:34:16;3.27;90.99
69436;SHT31;56625;54.322;18.582;2022-12-07T05:36:44;3.27;91.00
69436;SHT31;56625;54.322;18.582;2022-12-07T05:39:12;3.30;91.06
69436;SHT31;56625;54.322;18.582;2022-12-07T05:41:40;3.32;91.01
69436;SHT31;56625;54.322;18.582;2022-12-07T05:44:27;3.33;91.00
69436;SHT31;56625;54.322;18.582;2022-12-07T05:46:55;3.35;91.00
69436;SHT31;56625;54.322;18.582;2022-12-07T05:49:23;3.37;90.99
69436;SHT31;56625;54.322;18.582;2022-12-07T05:51:51;3.40;90.89
69436;SHT31;56625;54.322;18.582;2022-12-07T05:54:19;3.40;90.74
69436;SHT31;56625;54.322;18.582;2022-12-07T05:56:47;3.42;90.71
69436;SHT31;56625;54.322;18.582;2022-12-07T05:59:15;3.42;90.57
69436;SHT31;56625;54.322;18.582;2022-12-07T06:02:00;3.43;90.53
69436;SHT31;56625;54.322;18.582;2022-12-07T06:04:36;3.45;90.52
69436;SHT31;56625;54.322;18.582;2022-12-07T06:07:11;3.47;90.52
69436;SHT31;56625;54.322;18.582;2022-12-07T06:09:41;3.46;90.50
69436;SHT31;56625;54.322;18.582;2022-12-07T06:12:11;3.47;90.33
69436;SHT31;56625;54.322;18.582;2022-12-07T06:14:59;3.47;89.94
69436;SHT31;56625;54.322;18.582;2022-12-07T06:17:27;3.46;89.71
69436;SHT31;56625;54.322;18.582;2022-12-07T06:19:55;3.45;89.35
69436;SHT31;56625;54.322;18.582;2022-12-07T06:22:23;3.41;88.30
69436;SHT31;56625;54.322;18.582;2022-12-07T06:24:51;3.39;87.93
69436;SHT31;56625;54.322;18.582;2022-12-07T06:27:19;3.35;87.43
69436;SHT31;56625;54.322;18.582;2022-12-07T06:29:47;3.32;86.97
69436;SHT31;56625;54.322;18.582;2022-12-07T06:32:15;3.29;86.79
69436;SHT31;56625;54.322;18.582;2022-12-07T06:34:47;3.25;86.89
69436;SHT31;56625;54.322;18.582;2022-12-07T06:37:15;3.22;86.59
69436;SHT31;56625;54.322;18.582;2022-12-07T06:39:43;3.19;86.52
69436;SHT31;56625;54.322;18.582;2022-12-07T06:42:11;3.17;86.55
69436;SHT31;56625;54.322;18.582;2022-12-07T06:44:39;3.15;86.48
69436;SHT31;56625;54.322;18.582;2022-12-07T06:47:07;3.14;86.57
69436;SHT31;56625;54.322;18.582;2022-12-07T06:49:55;3.10;86.43
69436;SHT31;56625;54.322;18.582;2022-12-07T06:52:23;3.09;86.34
69436;SHT31;56625;54.322;18.582;2022-12-07T06:54:51;3.06;86.24
69436;SHT31;56625;54.322;18.582;2022-12-07T06:57:19;3.05;86.34
69436;SHT31;56625;54.322;18.582;2022-12-07T06:59:47;3.04;86.44
69436;SHT31;56625;54.322;18.582;2022-12-07T07:02:15;3.03;86.49
69436;SHT31;56625;54.322;18.582;2022-12-07T07:04:44;3.02;86.62
69436;SHT31;56625;54.322;18.582;2022-12-07T07:07:12;3.01;86.81
69436;SHT31;56625;54.322;18.582;2022-12-07T07:09:40;3.01;86.96
69436;SHT31;56625;54.322;18.582;2022-12-07T07:12:08;3.03;87.00
69436;SHT31;56625;54.322;18.582;2022-12-07T07:14:36;3.04;87.06
69436;SHT31;56625;54.322;18.582;2022-12-07T07:17:04;3.05;87.10
69436;SHT31;56625;54.322;18.582;2022-12-07T07:19:33;3.04;87.16
69436;SHT31;56625;54.322;18.582;2022-12-07T07:22:01;3.03;87.21
69436;SHT31;56625;54.322;18.582;2022-12-07T07:24:29;3.04;87.20
69436;SHT31;56625;54.322;18.582;2022-12-07T07:26:57;3.05;87.31
69436;SHT31;56625;54.322;18.582;2022-12-07T07:29:25;3.06;87.36
69436;SHT31;56625;54.322;18.582;2022-12-07T07:31:53;3.06;87.09
69436;SHT31;56625;54.322;18.582;2022-12-07T07:34:21;3.06;87.01
69436;SHT31;56625;54.322;18.582;2022-12-07T07:36:50;3.03;86.74
69436;SHT31;56625;54.322;18.582;2022-12-07T07:39:17;3.01;86.70
69436;SHT31;56625;54.322;18.582;2022-12-07T07:41:46;3.00;86.73
69436;SHT31;56625;54.322;18.582;2022-12-07T07:44:14;2.98;86.77
69436;SHT31;56625;54.322;18.582;2022-12-07T07:46:42;2.94;86.87
69436;SHT31;56625;54.322;18.582;2022-12-07T07:49:10;2.94;86.97
69436;SHT31;56625;54.322;18.582;2022-12-07T07:51:39;2.94;87.10
69436;SHT31;56625;54.322;18.582;2022-12-07T07:54:07;2.93;87.13
69436;SHT31;56625;54.322;18.582;2022-12-07T07:56:34;2.93;87.13
69436;SHT31;56625;54.322;18.582;2022-12-07T07:59:02;2.93;87.26
69436;SHT31;56625;54.322;18.582;2022-12-07T08:01:30;2.94;87.30
69436;SHT31;56625;54.322;18.582;2022-12-07T08:03:58;2.97;87.28
69436;SHT31;56625;54.322;18.582;2022-12-07T08:06:26;3.01;87.22
69436;SHT31;56625;54.322;18.582;2022-12-07T08:08:59;3.07;87.15
69436;SHT31;56625;54.322;18.582;2022-12-07T08:11:27;3.13;87.01
69436;SHT31;56625;54.322;18.582;2022-12-07T08:13:55;3.22;86.98
69436;SHT31;56625;54.322;18.582;2022-12-07T08:16:23;3.28;86.78
69436;SHT31;56625;54.322;18.582;2022-12-07T08:18:51;3.34;86.61
69436;SHT31;56625;54.322;18.582;2022-12-07T08:21:19;3.39;86.41
69436;SHT31;56625;54.322;18.582;2022-12-07T08:23:48;3.43;86.19
69436;SHT31;56625;54.322;18.582;2022-12-07T08:26:16;3.46;85.96
69436;SHT31;56625;54.322;18.582;2022-12-07T08:28:44;3.49;85.78
69436;SHT31;56625;54.322;18.582;2022-12-07T08:31:14;3.50;85.52
69436;SHT31;56625;54.322;18.582;2022-12-07T08:33:49;3.48;85.50
69436;SHT31;56625;54.322;18.582;2022-12-07T08:36:18;3.46;85.47
69436;SHT31;56625;54.322;18.582;2022-12-07T08:38:46;3.44;85.48
69436;SHT31;56625;54.322;18.582;2022-12-07T08:41:34;3.43;85.61
69436;SHT31;56625;54.322;18.582;2022-12-07T08:44:03;3.42;85.49
69436;SHT31;56625;54.322;18.582;2022-12-07T08:46:33;3.42;85.53
69436;SHT31;56625;54.322;18.582;2022-12-07T08:49:16;3.44;85.58
69436;SHT31;56625;54.322;18.582;2022-12-07T08:51:50;3.43;85.29
69436;SHT31;56625;54.322;18.582;2022-12-07T08:54:18;3.41;85.11
69436;SHT31;56625;54.322;18.582;2022-12-07T08:56:47;3.39;84.91
69436;SHT31;56625;54.322;18.582;2022-12-07T08:59:25;3.37;84.89
69436;SHT31;56625;54.322;18.582;2022-12-07T09:01:54;3.37;84.96
69436;SHT31;56625;54.322;18.582;2022-12-07T09:04:22;3.35;84.78
69436;SHT31;56625;54.322;18.582;2022-12-07T09:06:50;3.34;84.61
69436;SHT31;56625;54.322;18.582;2022-12-07T09:09:18;3.32;84.67
69436;SHT31;56625;54.322;18.582;2022-12-07T09:11:46;3.29;84.27
69436;SHT31;56625;54.322;18.582;2022-12-07T09:14:14;3.29;84.16
69436;SHT31;56625;54.322;18.582;2022-12-07T09:16:43;3.25;83.88
69436;SHT31;56625;54.322;18.582;2022-12-07T09:19:11;3.23;83.91
69436;SHT31;56625;54.322;18.582;2022-12-07T09:21:39;3.23;84.05
69436;SHT31;56625;54.322;18.582;2022-12-07T09:24:07;3.24;84.21
69436;SHT31;56625;54.322;18.582;2022-12-07T09:26:36;3.25;84.10
69436;SHT31;56625;54.322;18.582;2022-12-07T09:29:06;3.27;83.95
69436;SHT31;56625;54.322;18.582;2022-12-07T09:31:35;3.28;83.99
69436;SHT31;56625;54.322;18.582;2022-12-07T09:34:04;3.27;83.94
69436;SHT31;56625;54.322;18.582;2022-12-07T09:36:33;3.26;83.71
69436;SHT31;56625;54.322;18.582;2022-12-07T09:39:02;3.24;83.74
69436;SHT31;56625;54.322;18.582;2022-12-07T09:41:32;3.25;84.03
69436;SHT31;56625;54.322;18.582;2022-12-07T09:44:05;3.26;84.05
69436;SHT31;56625;54.322;18.582;2022-12-07T09:46:45;3.27;83.86
69436;SHT31;56625;54.322;18.582;2022-12-07T09:49:15;3.27;83.81
69436;SHT31;56625;54.322;18.582;2022-12-07T09:51:58;3.27;83.81
69436;SHT31;56625;54.322;18.582;2022-12-07T09:54:31;3.27;83.91
69436;SHT31;56625;54.322;18.582;2022-12-07T09:57:07;3.27;83.74
69436;SHT31;56625;54.322;18.582;2022-12-07T09:59:39;3.27;83.84
69436;SHT31;56625;54.322;18.582;2022-12-07T10:02:19;3.27;83.92
69436;SHT31;56625;54.322;18.582;2022-12-07T10:04:52;3.25;83.65
69436;SHT31;56625;54.322;18.582;2022-12-07T10:07:21;3.22;83.66
69436;SHT31;56625;54.322;18.582;2022-12-07T10:09:49;3.23;84.05
69436;SHT31;56625;54.322;18.582;2022-12-07T10:12:17;3.25;84.10
69436;SHT31;56625;54.322;18.582;2022-12-07T10:17:39;3.21;83.23
69436;SHT31;56625;54.322;18.582;2022-12-07T10:20:16;3.15;83.12
69436;SHT31;56625;54.322;18.582;2022-12-07T10:23:03;3.12;83.08
69436;SHT31;56625;54.322;18.582;2022-12-07T10:25:40;3.12;83.23
69436;SHT31;56625;54.322;18.582;2022-12-07T10:28:17;3.11;83.27
69436;SHT31;56625;54.322;18.582;2022-12-07T10:30:50;3.11;83.22
69436;SHT31;56625;54.322;18.582;2022-12-07T10:38:59;3.17;82.46
69436;SHT31;56625;54.322;18.582;2022-12-07T10:44:29;3.18;82.81
69436;SHT31;56625;54.322;18.582;2022-12-07T11:05:45;3.21;82.01
69436;SHT31;56625;54.322;18.582;2022-12-07T11:21:56;3.22;81.15
69436;SHT31;56625;54.322;18.582;2022-12-07T11:31:12;3.17;81.58
69436;SHT31;56625;54.322;18.582;2022-12-07T11:37:11;3.14;81.17
69436;SHT31;56625;54.322;18.582;2022-12-07T11:40:17;3.10;81.23
69436;SHT31;56625;54.322;18.582;2022-12-07T11:45:43;3.03;81.48
69436;SHT31;56625;54.322;18.582;2022-12-07T11:48:21;2.99;81.34
69436;SHT31;56625;54.322;18.582;2022-12-07T11:50:59;2.95;81.16
69436;SHT31;56625;54.322;18.582;2022-12-07T11:53:39;2.89;81.17
69436;SHT31;56625;54.322;18.582;2022-12-07T11:56:29;2.84;81.55
69436;SHT31;56625;54.322;18.582;2022-12-07T11:59:08;2.82;81.80
69436;SHT31;56625;54.322;18.582;2022-12-07T12:02:03;2.80;81.84
69436;SHT31;56625;54.322;18.582;2022-12-07T12:11:18;2.70;81.57
69436;SHT31;56625;54.322;18.582;2022-12-07T12:14:30;2.67;81.96
69436;SHT31;56625;54.322;18.582;2022-12-07T12:21:00;2.68;82.22
69436;SHT31;56625;54.322;18.582;2022-12-07T12:26:49;2.69;82.23
69436;SHT31;56625;54.322;18.582;2022-12-07T12:29:24;2.70;82.38
69436;SHT31;56625;54.322;18.582;2022-12-07T12:32:06;2.71;82.43
69436;SHT31;56625;54.322;18.582;2022-12-07T12:38:32;2.76;82.39
69436;SHT31;56625;54.322;18.582;2022-12-07T12:41:50;2.77;82.40
69436;SHT31;56625;54.322;18.582;2022-12-07T12:53:00;2.77;82.75
69436;SHT31;56625;54.322;18.582;2022-12-07T13:00:47;2.77;82.79
69436;SHT31;56625;54.322;18.582;2022-12-07T13:03:55;2.78;82.72
69436;SHT31;56625;54.322;18.582;2022-12-07T13:08:54;2.78;82.72
69436;SHT31;56625;54.322;18.582;2022-12-07T13:11:32;2.77;82.64
69436;SHT31;56625;54.322;18.582;2022-12-07T13:17:04;2.77;82.69
69436;SHT31;56625;54.322;18.582;2022-12-07T13:27:54;2.75;82.21
69436;SHT31;56625;54.322;18.582;2022-12-07T13:30:29;2.74;82.13
69436;SHT31;56625;54.322;18.582;2022-12-07T13:32:58;2.73;82.06
69436;SHT31;56625;54.322;18.582;2022-12-07T13:35:32;2.74;81.97
69436;SHT31;56625;54.322;18.582;2022-12-07T13:38:13;2.74;82.06
69436;SHT31;56625;54.322;18.582;2022-12-07T13:43:45;2.78;82.13
69436;SHT31;56625;54.322;18.582;2022-12-07T13:46:18;2.78;81.93
69436;SHT31;56625;54.322;18.582;2022-12-07T13:48:57;2.77;81.93
69436;SHT31;56625;54.322;18.582;2022-12-07T13:51:26;2.74;81.92
69436;SHT31;56625;54.322;18.582;2022-12-07T13:53:59;2.71;81.94
69436;SHT31;56625;54.322;18.582;2022-12-07T13:56:35;2.66;82.07
69436;SHT31;56625;54.322;18.582;2022-12-07T13:59:04;2.65;82.03
69436;SHT31;56625;54.322;18.582;2022-12-07T14:01:41;2.61;82.09
69436;SHT31;56625;54.322;18.582;2022-12-07T14:04:17;2.57;82.06
69436;SHT31;56625;54.322;18.582;2022-12-07T14:07:00;2.56;81.99
69436;SHT31;56625;54.322;18.582;2022-12-07T14:10:00;2.54;81.93
69436;SHT31;56625;54.322;18.582;2022-12-07T14:12:36;2.51;81.95
69436;SHT31;56625;54.322;18.582;2022-12-07T14:15:04;2.50;81.99
69436;SHT31;56625;54.322;18.582;2022-12-07T14:17:33;2.48;81.99
69436;SHT31;56625;54.322;18.582;2022-12-07T14:20:02;2.45;82.05
69436;SHT31;56625;54.322;18.582;2022-12-07T14:22:36;2.44;82.18
69436;SHT31;56625;54.322;18.582;2022-12-07T14:25:25;2.42;82.25
69436;SHT31;56625;54.322;18.582;2022-12-07T14:27:58;2.38;82.27
69436;SHT31;56625;54.322;18.582;2022-12-07T14:30:29;2.37;82.29
69436;SHT31;56625;54.322;18.582;2022-12-07T14:33:02;2.36;82.29
69436;SHT31;56625;54.322;18.582;2022-12-07T14:35:32;2.36;82.41
69436;SHT31;56625;54.322;18.582;2022-12-07T14:38:00;2.36;82.36
69436;SHT31;56625;54.322;18.582;2022-12-07T14:40:28;2.38;82.38
69436;SHT31;56625;54.322;18.582;2022-12-07T14:43:01;2.40;82.48
69436;SHT31;56625;54.322;18.582;2022-12-07T14:45:43;2.41;82.55
69436;SHT31;56625;54.322;18.582;2022-12-07T14:48:11;2.42;82.37
69436;SHT31;56625;54.322;18.582;2022-12-07T14:51:02;2.44;82.26
69436;SHT31;56625;54.322;18.582;2022-12-07T14:53:51;2.45;82.26
69436;SHT31;56625;54.322;18.582;2022-12-07T14:56:24;2.45;82.19
69436;SHT31;56625;54.322;18.582;2022-12-07T14:58:53;2.45;82.14
69436;SHT31;56625;54.322;18.582;2022-12-07T15:01:21;2.47;82.05
69436;SHT31;56625;54.322;18.582;2022-12-07T15:03:49;2.48;82.12
69436;SHT31;56625;54.322;18.582;2022-12-07T15:06:17;2.47;82.09
69436;SHT31;56625;54.322;18.582;2022-12-07T15:08:46;2.46;82.10
69436;SHT31;56625;54.322;18.582;2022-12-07T15:11:15;2.44;82.18
69436;SHT31;56625;54.322;18.582;2022-12-07T15:13:45;2.42;82.11
69436;SHT31;56625;54.322;18.582;2022-12-07T15:16:32;2.41;82.11
69436;SHT31;56625;54.322;18.582;2022-12-07T15:19:21;2.38;81.92
69436;SHT31;56625;54.322;18.582;2022-12-07T15:21:56;2.37;82.05
69436;SHT31;56625;54.322;18.582;2022-12-07T15:24:27;2.38;82.15
69436;SHT31;56625;54.322;18.582;2022-12-07T15:26:55;2.37;82.13
69436;SHT31;56625;54.322;18.582;2022-12-07T15:29:23;2.37;81.98
69436;SHT31;56625;54.322;18.582;2022-12-07T15:31:51;2.36;81.94
69436;SHT31;56625;54.322;18.582;2022-12-07T15:34:24;2.35;81.77
69436;SHT31;56625;54.322;18.582;2022-12-07T15:37:04;2.34;81.84
69436;SHT31;56625;54.322;18.582;2022-12-07T15:39:33;2.35;81.87
69436;SHT31;56625;54.322;18.582;2022-12-07T15:42:02;2.35;81.88
69436;SHT31;56625;54.322;18.582;2022-12-07T15:44:30;2.36;81.98
69436;SHT31;56625;54.322;18.582;2022-12-07T15:47:17;2.36;81.96
69436;SHT31;56625;54.322;18.582;2022-12-07T15:49:45;2.36;81.96
69436;SHT31;56625;54.322;18.582;2022-12-07T15:52:13;2.35;81.96
69436;SHT31;56625;54.322;18.582;2022-12-07T15:54:41;2.35;82.16
69436;SHT31;56625;54.322;18.582;2022-12-07T15:57:09;2.32;82.32
69436;SHT31;56625;54.322;18.582;2022-12-07T15:59:37;2.31;82.39
69436;SHT31;56625;54.322;18.582;2022-12-07T16:02:05;2.29;82.44
69436;SHT31;56625;54.322;18.582;2022-12-07T16:04:33;2.30;82.55
69436;SHT31;56625;54.322;18.582;2022-12-07T16:07:01;2.29;82.59
69436;SHT31;56625;54.322;18.582;2022-12-07T16:09:30;2.30;82.58
69436;SHT31;56625;54.322;18.582;2022-12-07T16:11:58;2.31;82.66
69436;SHT31;56625;54.322;18.582;2022-12-07T16:14:25;2.33;82.62
69436;SHT31;56625;54.322;18.582;2022-12-07T16:16:53;2.33;82.51
69436;SHT31;56625;54.322;18.582;2022-12-07T16:19:22;2.32;82.41
69436;SHT31;56625;54.322;18.582;2022-12-07T16:21:50;2.30;82.25
69436;SHT31;56625;54.322;18.582;2022-12-07T16:24:18;2.29;82.22
69436;SHT31;56625;54.322;18.582;2022-12-07T16:26:46;2.28;82.24
69436;SHT31;56625;54.322;18.582;2022-12-07T16:29:17;2.26;82.25
69436;SHT31;56625;54.322;18.582;2022-12-07T16:31:48;2.25;82.31
69436;SHT31;56625;54.322;18.582;2022-12-07T16:34:18;2.25;82.20
69436;SHT31;56625;54.322;18.582;2022-12-07T16:36:46;2.25;82.18
69436;SHT31;56625;54.322;18.582;2022-12-07T16:39:31;2.26;82.15
69436;SHT31;56625;54.322;18.582;2022-12-07T16:42:03;2.25;82.25
69436;SHT31;56625;54.322;18.582;2022-12-07T16:44:31;2.24;82.41
69436;SHT31;56625;54.322;18.582;2022-12-07T16:46:59;2.22;82.67
69436;SHT31;56625;54.322;18.582;2022-12-07T16:49:28;2.19;82.92
69436;SHT31;56625;54.322;18.582;2022-12-07T16:51:57;2.18;83.15
69436;SHT31;56625;54.322;18.582;2022-12-07T16:54:45;2.15;83.40
69436;SHT31;56625;54.322;18.582;2022-12-07T16:57:14;2.14;83.55
69436;SHT31;56625;54.322;18.582;2022-12-07T16:59:51;2.12;83.71
69436;SHT31;56625;54.322;18.582;2022-12-07T17:02:19;2.11;83.93
69436;SHT31;56625;54.322;18.582;2022-12-07T17:04:48;2.11;84.07
69436;SHT31;56625;54.322;18.582;2022-12-07T17:07:16;2.10;84.10
69436;SHT31;56625;54.322;18.582;2022-12-07T17:09:44;2.10;84.04
69436;SHT31;56625;54.322;18.582;2022-12-07T17:12:20;2.09;83.99
69436;SHT31;56625;54.322;18.582;2022-12-07T17:14:48;2.09;83.97
69436;SHT31;56625;54.322;18.582;2022-12-07T17:17:34;2.09;83.83
69436;SHT31;56625;54.322;18.582;2022-12-07T17:20:02;2.08;83.77
69436;SHT31;56625;54.322;18.582;2022-12-07T17:22:31;2.06;83.80
69436;SHT31;56625;54.322;18.582;2022-12-07T17:24:59;2.04;83.61
69436;SHT31;56625;54.322;18.582;2022-12-07T17:27:27;2.02;83.45
69436;SHT31;56625;54.322;18.582;2022-12-07T17:29:55;2.00;83.48
69436;SHT31;56625;54.322;18.582;2022-12-07T17:32:24;1.97;83.52
69436;SHT31;56625;54.322;18.582;2022-12-07T17:34:52;1.94;83.50
69436;SHT31;56625;54.322;18.582;2022-12-07T17:37:20;1.93;83.26
69436;SHT31;56625;54.322;18.582;2022-12-07T17:39:48;1.91;83.13
69436;SHT31;56625;54.322;18.582;2022-12-07T17:42:24;1.91;83.09
69436;SHT31;56625;54.322;18.582;2022-12-07T17:45:07;1.90;83.09
69436;SHT31;56625;54.322;18.582;2022-12-07T17:47:37;1.89;83.14
69436;SHT31;56625;54.322;18.582;2022-12-07T17:50:07;1.88;83.11
69436;SHT31;56625;54.322;18.582;2022-12-07T17:52:38;1.88;83.20
69436;SHT31;56625;54.322;18.582;2022-12-07T17:55:26;1.86;83.25
69436;SHT31;56625;54.322;18.582;2022-12-07T17:57:54;1.86;83.19
69436;SHT31;56625;54.322;18.582;2022-12-07T18:00:22;1.86;83.10
69436;SHT31;56625;54.322;18.582;2022-12-07T18:02:50;1.86;83.09
69436;SHT31;56625;54.322;18.582;2022-12-07T18:05:18;1.88;83.16
69436;SHT31;56625;54.322;18.582;2022-12-07T18:07:46;1.88;83.42
69436;SHT31;56625;54.322;18.582;2022-12-07T18:10:14;1.86;84.27
69436;SHT31;56625;54.322;18.582;2022-12-07T18:12:42;1.83;84.83
69436;SHT31;56625;54.322;18.582;2022-12-07T18:15:16;1.79;85.24
69436;SHT31;56625;54.322;18.582;2022-12-07T18:17:44;1.77;85.32
69436;SHT31;56625;54.322;18.582;2022-12-07T18:20:13;1.79;85.25
69436;SHT31;56625;54.322;18.582;2022-12-07T18:22:42;1.79;85.36
69436;SHT31;56625;54.322;18.582;2022-12-07T18:25:10;1.81;85.53
69436;SHT31;56625;54.322;18.582;2022-12-07T18:27:38;1.81;85.59